Time;durP1;ratioP1;P1;durP2;ratioP2;P2;SDS_P1;SDS_P2;PMS_P1;PMS_P2;Temp;Humidity;BMP_temperature;BMP_pressure;BME280_temperature;BME280_humidity;BME280_pressure;Samples;Min_cycle;Max_cycle;Signal;HPM_P1;HPM_P2
2022/03/26 00:02:10;;;;;;;16.67;7.72;;;;;;;;;;6209171;28;20049;-69
2022/03/26 00:05:12;;;;;;;21.25;8.93;;;;;;;;;;6222123;28;20260;-69
2022/03/26 00:08:14;;;;;;;17.75;10.27;;;;;;;;;;6220249;28;20046;-69
2022/03/26 00:11:16;;;;;;;17.15;8.93;;;;;;;;;;6221469;28;20042;-69
2022/03/26 00:14:17;;;;;;;15.30;8.35;;;;;;;;;;6220580;28;20203;-69
2022/03/26 00:17:20;;;;;;;12.73;7.50;;;;;;;;;;6220425;28;20201;-69
2022/03/26 00:20:22;;;;;;;14.25;8.13;;;;;;;;;;6218331;28;20127;-68
2022/03/26 00:23:24;;;;;;;16.45;7.95;;;;;;;;;;6221046;28;20165;-69
2022/03/26 00:26:25;;;;;;;15.05;8.82;;;;;;;;;;6220298;28;20531;-69
2022/03/26 00:29:27;;;;;;;10.55;7.90;;;;;;;;;;6221257;28;20103;-67
2022/03/26 00:32:30;;;;;;;12.25;7.88;;;;;;;;;;6220577;28;20188;-67
2022/03/26 00:35:31;;;;;;;9.95;7.35;;;;;;;;;;6220395;28;20060;-68
2022/03/26 00:38:33;;;;;;;12.65;7.75;;;;;;;;;;6219918;28;20124;-68
2022/03/26 00:41:35;;;;;;;13.30;7.90;;;;;;;;;;6221104;28;20048;-68
2022/03/26 00:44:37;;;;;;;14.93;8.25;;;;;;;;;;6221161;28;20493;-68
2022/03/26 00:47:40;;;;;;;12.90;7.82;;;;;;;;;;6222576;28;20062;-69
2022/03/26 00:50:42;;;;;;;15.35;8.40;;;;;;;;;;6220082;28;20128;-68
2022/03/26 00:53:43;;;;;;;16.52;8.15;;;;;;;;;;6221962;28;20180;-69
2022/03/26 00:56:45;;;;;;;20.52;9.27;;;;;;;;;;6222556;28;20038;-68
2022/03/26 00:59:46;;;;;;;16.48;8.90;;;;;;;;;;6222024;28;20089;-68
2022/03/26 01:02:49;;;;;;;14.32;8.40;;;;;;;;;;6221979;28;20111;-68
2022/03/26 01:05:51;;;;;;;15.68;8.45;;;;;;;;;;6219674;28;20136;-68
2022/03/26 01:08:53;;;;;;;14.35;7.90;;;;;;;;;;6220724;28;20116;-68
2022/03/26 01:11:57;;;;;;;13.95;8.70;;;;;;;;;;6222746;28;20046;-68
2022/03/26 01:14:58;;;;;;;14.30;7.88;;;;;;;;;;6222978;28;20214;-68
2022/03/26 01:18:01;;;;;;;14.18;8.98;;;;;;;;;;6222433;28;20152;-68
2022/03/26 01:21:04;;;;;;;16.08;8.85;;;;;;;;;;6219436;28;20123;-68
2022/03/26 01:24:06;;;;;;;15.45;8.68;;;;;;;;;;6219076;28;20046;-68
2022/03/26 01:27:08;;;;;;;13.25;7.93;;;;;;;;;;6219451;28;20133;-68
2022/03/26 01:30:11;;;;;;;23.73;9.05;;;;;;;;;;6218809;28;20042;-68
2022/03/26 01:33:13;;;;;;;17.92;8.40;;;;;;;;;;6218914;28;20107;-68
2022/03/26 01:36:15;;;;;;;22.63;9.00;;;;;;;;;;6218752;28;20049;-68
2022/03/26 01:39:18;;;;;;;22.83;9.90;;;;;;;;;;6219430;28;20201;-68
2022/03/26 01:42:20;;;;;;;20.00;9.70;;;;;;;;;;6219243;28;20052;-68
2022/03/26 01:45:21;;;;;;;20.83;8.30;;;;;;;;;;6219626;28;20076;-69
2022/03/26 01:48:24;;;;;;;19.13;8.52;;;;;;;;;;6218247;28;20275;-69
2022/03/26 01:51:26;;;;;;;16.00;8.60;;;;;;;;;;6221220;28;20579;-73
2022/03/26 01:54:28;;;;;;;18.52;8.60;;;;;;;;;;6221381;28;20050;-70
2022/03/26 01:57:29;;;;;;;22.52;8.93;;;;;;;;;;6221144;28;20128;-72
2022/03/26 02:00:31;;;;;;;19.85;9.32;;;;;;;;;;6221782;28;20124;-70
2022/03/26 02:03:34;;;;;;;39.40;11.73;;;;;;;;;;6221935;28;20074;-71
2022/03/26 02:06:38;;;;;;;49.50;11.73;;;;;;;;;;6221241;28;20176;-69
2022/03/26 02:09:39;;;;;;;38.17;10.93;;;;;;;;;;6222270;28;20872;-70
2022/03/26 02:12:41;;;;;;;45.00;12.40;;;;;;;;;;6221644;28;20038;-69
2022/03/26 02:15:44;;;;;;;32.63;11.27;;;;;;;;;;6221933;28;20135;-71
2022/03/26 02:18:47;;;;;;;24.83;8.75;;;;;;;;;;6221809;28;20494;-69
2022/03/26 02:21:50;;;;;;;17.47;9.20;;;;;;;;;;6221605;28;20136;-68
2022/03/26 02:24:53;;;;;;;13.90;7.97;;;;;;;;;;6224076;28;20046;-68
2022/03/26 02:27:54;;;;;;;15.52;8.88;;;;;;;;;;6225038;28;20136;-71
2022/03/26 02:30:56;;;;;;;18.02;8.68;;;;;;;;;;6222341;28;20468;-69
2022/03/26 02:33:58;;;;;;;15.90;8.95;;;;;;;;;;6223390;28;20054;-68
2022/03/26 02:37:02;;;;;;;17.08;9.13;;;;;;;;;;6223407;28;20042;-65
2022/03/26 02:40:07;;;;;;;14.50;8.43;;;;;;;;;;6223596;28;20183;-66
2022/03/26 02:43:08;;;;;;;24.67;9.75;;;;;;;;;;6223588;28;20045;-66
2022/03/26 02:46:10;;;;;;;15.55;8.55;;;;;;;;;;6226690;28;20172;-67
2022/03/26 02:49:11;;;;;;;16.58;8.60;;;;;;;;;;6227802;28;20490;-66
2022/03/26 02:52:14;;;;;;;23.85;9.45;;;;;;;;;;6225699;28;20137;-66
2022/03/26 02:55:16;;;;;;;15.60;8.57;;;;;;;;;;6226829;28;20264;-66
2022/03/26 02:58:17;;;;;;;16.40;9.10;;;;;;;;;;6225309;28;20153;-66
2022/03/26 03:01:19;;;;;;;14.05;9.27;;;;;;;;;;6225775;28;20121;-66
2022/03/26 03:04:21;;;;;;;15.57;9.35;;;;;;;;;;6225295;28;20056;-65
2022/03/26 03:07:24;;;;;;;16.58;8.95;;;;;;;;;;6225714;28;20050;-66
2022/03/26 03:10:26;;;;;;;18.05;8.35;;;;;;;;;;6222790;28;20054;-66
2022/03/26 03:13:27;;;;;;;16.23;8.73;;;;;;;;;;6227265;28;20046;-66
2022/03/26 03:16:29;;;;;;;14.60;9.23;;;;;;;;;;6224811;28;20129;-66
2022/03/26 03:19:31;;;;;;;14.55;8.85;;;;;;;;;;6225431;28;20406;-66
2022/03/26 03:22:34;;;;;;;17.50;9.55;;;;;;;;;;6224891;28;20046;-67
2022/03/26 03:25:35;;;;;;;15.55;9.80;;;;;;;;;;6225002;28;20173;-67
2022/03/26 03:28:37;;;;;;;15.63;9.73;;;;;;;;;;6222997;28;20046;-66
2022/03/26 03:31:44;;;;;;;17.55;9.30;;;;;;;;;;6223536;28;20056;-66
2022/03/26 03:34:45;;;;;;;17.88;10.48;;;;;;;;;;6224463;28;20367;-66
2022/03/26 03:37:48;;;;;;;13.50;9.43;;;;;;;;;;6225385;28;20070;-66
2022/03/26 03:40:50;;;;;;;14.90;9.50;;;;;;;;;;6224274;28;20050;-66
2022/03/26 03:43:51;;;;;;;18.30;9.88;;;;;;;;;;6225910;28;20095;-66
2022/03/26 03:46:53;;;;;;;17.10;9.35;;;;;;;;;;6224789;28;20132;-66
2022/03/26 03:49:54;;;;;;;13.88;9.40;;;;;;;;;;6225663;28;20060;-66
2022/03/26 03:52:57;;;;;;;17.30;8.73;;;;;;;;;;6225767;28;20129;-67
2022/03/26 03:55:59;;;;;;;13.70;9.55;;;;;;;;;;6222308;28;20133;-66
2022/03/26 03:59:00;;;;;;;14.00;9.63;;;;;;;;;;6222728;28;20140;-66
2022/03/26 04:02:02;;;;;;;16.88;9.55;;;;;;;;;;6224512;28;20129;-67
2022/03/26 04:05:04;;;;;;;14.57;9.45;;;;;;;;;;6223724;28;20042;-66
2022/03/26 04:08:08;;;;;;;13.57;9.68;;;;;;;;;;6223898;28;20132;-66
2022/03/26 04:11:09;;;;;;;16.88;9.40;;;;;;;;;;6224174;28;20382;-66
2022/03/26 04:14:11;;;;;;;16.80;10.10;;;;;;;;;;6223592;28;20108;-66
2022/03/26 04:17:13;;;;;;;14.63;9.60;;;;;;;;;;6223147;28;20050;-66
2022/03/26 04:20:14;;;;;;;16.48;10.27;;;;;;;;;;6223768;28;20049;-66
2022/03/26 04:23:17;;;;;;;14.98;10.05;;;;;;;;;;6225061;28;20518;-67
2022/03/26 04:26:19;;;;;;;19.45;11.38;;;;;;;;;;6224039;28;20058;-66
2022/03/26 04:29:21;;;;;;;15.50;9.77;;;;;;;;;;6224942;28;20050;-66
2022/03/26 04:32:22;;;;;;;18.25;9.88;;;;;;;;;;6224811;28;20053;-66
2022/03/26 04:35:24;;;;;;;18.92;10.68;;;;;;;;;;6223138;28;20081;-66
2022/03/26 04:38:27;;;;;;;18.40;9.88;;;;;;;;;;6225694;28;20056;-67
2022/03/26 04:41:29;;;;;;;18.35;10.55;;;;;;;;;;6223870;28;20053;-67
2022/03/26 04:44:30;;;;;;;14.23;9.73;;;;;;;;;;6224247;28;20068;-67
2022/03/26 04:47:32;;;;;;;16.05;10.07;;;;;;;;;;6224485;28;20103;-66
2022/03/26 04:50:34;;;;;;;16.55;10.85;;;;;;;;;;6223168;28;20069;-66
2022/03/26 04:53:36;;;;;;;13.63;9.23;;;;;;;;;;6224554;28;20505;-66
2022/03/26 04:56:38;;;;;;;16.63;9.35;;;;;;;;;;6224443;28;20122;-65
2022/03/26 04:59:40;;;;;;;21.30;9.68;;;;;;;;;;6223395;28;20069;-66
2022/03/26 05:02:42;;;;;;;19.05;9.75;;;;;;;;;;6224216;28;20129;-66
2022/03/26 05:05:43;;;;;;;19.75;11.35;;;;;;;;;;6222846;28;20092;-66
2022/03/26 05:08:48;;;;;;;15.32;9.52;;;;;;;;;;6224516;28;20057;-66
2022/03/26 05:11:50;;;;;;;15.38;9.50;;;;;;;;;;6225572;28;20136;-66
2022/03/26 05:14:51;;;;;;;16.42;9.77;;;;;;;;;;6226061;28;20046;-66
2022/03/26 05:17:53;;;;;;;16.35;9.60;;;;;;;;;;6227272;28;20123;-66
2022/03/26 05:20:56;;;;;;;16.88;10.05;;;;;;;;;;6224101;28;20184;-66
2022/03/26 05:23:59;;;;;;;18.45;10.13;;;;;;;;;;6224675;28;20053;-65
2022/03/26 05:27:00;;;;;;;14.98;9.82;;;;;;;;;;6222214;28;20133;-66
2022/03/26 05:30:02;;;;;;;16.98;9.77;;;;;;;;;;6223900;28;20080;-66
2022/03/26 05:33:04;;;;;;;16.52;9.95;;;;;;;;;;6223439;28;20136;-66
2022/03/26 05:36:06;;;;;;;14.93;8.55;;;;;;;;;;6224415;28;20469;-67
2022/03/26 05:39:08;;;;;;;13.57;9.18;;;;;;;;;;6224463;28;20113;-66
2022/03/26 05:42:10;;;;;;;17.42;9.63;;;;;;;;;;6225368;28;20560;-66
2022/03/26 05:45:12;;;;;;;16.73;10.02;;;;;;;;;;6221642;28;20089;-66
2022/03/26 05:48:15;;;;;;;19.55;9.57;;;;;;;;;;6224042;28;20083;-67
2022/03/26 05:51:16;;;;;;;16.67;9.80;;;;;;;;;;6225616;28;20064;-66
2022/03/26 05:54:19;;;;;;;22.08;10.73;;;;;;;;;;6226070;28;20061;-66
2022/03/26 05:57:21;;;;;;;28.02;12.63;;;;;;;;;;6222415;28;20188;-66
2022/03/26 06:00:22;;;;;;;38.72;11.60;;;;;;;;;;6222079;28;20081;-66
2022/03/26 06:03:24;;;;;;;24.65;12.00;;;;;;;;;;6222514;28;20133;-67
2022/03/26 06:06:25;;;;;;;26.70;10.45;;;;;;;;;;6221510;28;20189;-65
2022/03/26 06:09:28;;;;;;;25.40;11.07;;;;;;;;;;6222644;28;20054;-66
2022/03/26 06:12:30;;;;;;;17.98;10.77;;;;;;;;;;6222253;28;20155;-66
2022/03/26 06:15:34;;;;;;;27.05;12.13;;;;;;;;;;6222851;28;20046;-66
2022/03/26 06:18:36;;;;;;;19.38;10.93;;;;;;;;;;6224790;28;20049;-65
2022/03/26 06:21:37;;;;;;;22.05;12.02;;;;;;;;;;6226947;28;20137;-66
2022/03/26 06:24:40;;;;;;;20.58;12.35;;;;;;;;;;6227107;28;20077;-67
2022/03/26 06:27:42;;;;;;;22.13;12.15;;;;;;;;;;6227552;28;20057;-66
2022/03/26 06:30:44;;;;;;;26.92;12.20;;;;;;;;;;6226657;28;20062;-66
2022/03/26 06:33:45;;;;;;;23.20;11.13;;;;;;;;;;6228903;28;20061;-66
2022/03/26 06:36:47;;;;;;;33.28;13.52;;;;;;;;;;6228214;28;20103;-66
2022/03/26 06:39:50;;;;;;;33.10;13.77;;;;;;;;;;6229317;28;20058;-67
2022/03/26 06:42:51;;;;;;;21.60;12.50;;;;;;;;;;6227014;28;20513;-66
2022/03/26 06:45:53;;;;;;;22.52;12.32;;;;;;;;;;6227941;28;20260;-66
2022/03/26 06:48:54;;;;;;;28.27;13.45;;;;;;;;;;6227270;28;20132;-66
2022/03/26 06:51:56;;;;;;;22.13;12.75;;;;;;;;;;6226075;28;20481;-67
2022/03/26 06:55:02;;;;;;;23.95;12.98;;;;;;;;;;6226113;28;20506;-66
2022/03/26 06:58:03;;;;;;;16.63;11.70;;;;;;;;;;6226024;28;20057;-67
2022/03/26 07:01:05;;;;;;;24.30;13.07;;;;;;;;;;6225395;28;20097;-66
2022/03/26 07:04:06;;;;;;;26.33;13.07;;;;;;;;;;6225984;28;20046;-67
2022/03/26 07:07:08;;;;;;;20.48;12.35;;;;;;;;;;6225276;28;20472;-66
2022/03/26 07:10:12;;;;;;;19.48;12.50;;;;;;;;;;6222772;28;20073;-66
2022/03/26 07:13:13;;;;;;;22.92;13.13;;;;;;;;;;6222574;28;20074;-66
2022/03/26 07:16:15;;;;;;;22.60;13.20;;;;;;;;;;6224192;28;20413;-65
2022/03/26 07:19:16;;;;;;;22.08;12.32;;;;;;;;;;6225281;28;20060;-66
2022/03/26 07:22:18;;;;;;;20.38;12.98;;;;;;;;;;6224833;28;20143;-65
2022/03/26 07:25:21;;;;;;;38.80;13.38;;;;;;;;;;6227457;28;20097;-65
2022/03/26 07:28:23;;;;;;;19.77;13.87;;;;;;;;;;6222324;28;20128;-66
2022/03/26 07:31:25;;;;;;;18.35;13.23;;;;;;;;;;6224999;28;20045;-64
2022/03/26 07:34:27;;;;;;;21.75;14.25;;;;;;;;;;6224636;28;25409;-64
2022/03/26 07:37:29;;;;;;;17.75;13.13;;;;;;;;;;6225107;28;20049;-67
2022/03/26 07:40:32;;;;;;;18.92;13.05;;;;;;;;;;6225836;28;20129;-68
2022/03/26 07:43:33;;;;;;;21.52;13.20;;;;;;;;;;6226314;28;20053;-66
2022/03/26 07:46:35;;;;;;;19.17;13.15;;;;;;;;;;6226070;28;20489;-68
2022/03/26 07:49:36;;;;;;;19.63;13.10;;;;;;;;;;6227848;28;20052;-66
2022/03/26 07:52:38;;;;;;;21.65;12.75;;;;;;;;;;6224603;28;20046;-67
2022/03/26 07:55:41;;;;;;;24.08;12.57;;;;;;;;;;6224464;28;20061;-67
2022/03/26 07:58:43;;;;;;;19.20;13.35;;;;;;;;;;6224063;28;20132;-68
2022/03/26 08:01:45;;;;;;;22.67;14.13;;;;;;;;;;6224149;28;20049;-67
2022/03/26 08:04:46;;;;;;;22.38;13.40;;;;;;;;;;6223476;28;20358;-67
2022/03/26 08:07:48;;;;;;;15.73;12.68;;;;;;;;;;6224569;28;20728;-67
2022/03/26 08:10:51;;;;;;;16.35;12.73;;;;;;;;;;6224976;28;20156;-67
2022/03/26 08:13:53;;;;;;;21.02;13.15;;;;;;;;;;6225777;28;20065;-67
2022/03/26 08:16:54;;;;;;;23.63;14.18;;;;;;;;;;6223969;28;20077;-67
2022/03/26 08:19:56;;;;;;;20.20;13.90;;;;;;;;;;6224998;28;20460;-68
2022/03/26 08:22:57;;;;;;;22.42;14.48;;;;;;;;;;6223605;28;20052;-67
2022/03/26 08:29:19;;;;;;;21.65;14.25;;;;;;;;;;6223981;28;20053;-69
2022/03/26 08:32:20;;;;;;;21.15;14.90;;;;;;;;;;6224526;28;20129;-69
2022/03/26 08:35:23;;;;;;;19.95;14.68;;;;;;;;;;6225145;28;20137;-70
2022/03/26 08:38:25;;;;;;;21.20;14.48;;;;;;;;;;6224087;28;20526;-68
2022/03/26 08:41:28;;;;;;;18.85;13.82;;;;;;;;;;6224006;28;20153;-69
2022/03/26 08:44:29;;;;;;;21.00;14.27;;;;;;;;;;6223361;28;20392;-70
2022/03/26 08:47:31;;;;;;;23.80;15.02;;;;;;;;;;6222905;28;20105;-68
2022/03/26 08:50:33;;;;;;;18.20;13.85;;;;;;;;;;6223566;28;20044;-68
2022/03/26 08:53:35;;;;;;;19.65;14.20;;;;;;;;;;6224137;28;20470;-69
2022/03/26 08:56:38;;;;;;;31.02;14.30;;;;;;;;;;6223127;28;20080;-70
2022/03/26 08:59:39;;;;;;;20.30;13.85;;;;;;;;;;6222868;28;20046;-70
2022/03/26 09:02:41;;;;;;;18.13;13.32;;;;;;;;;;6221648;28;20408;-68
2022/03/26 09:05:43;;;;;;;22.42;14.98;;;;;;;;;;6221269;28;20073;-68
2022/03/26 09:08:45;;;;;;;18.48;14.48;;;;;;;;;;6221860;28;20137;-68
2022/03/26 09:11:48;;;;;;;18.65;14.60;;;;;;;;;;6222598;28;20054;-69
2022/03/26 09:14:50;;;;;;;25.88;16.02;;;;;;;;;;6222447;28;20046;-67
2022/03/26 09:17:51;;;;;;;28.05;14.48;;;;;;;;;;6222585;28;20604;-71
2022/03/26 09:20:53;;;;;;;22.25;14.15;;;;;;;;;;6221803;28;20077;-73
2022/03/26 09:23:55;;;;;;;16.67;13.68;;;;;;;;;;6222223;28;20041;-68
2022/03/26 09:26:58;;;;;;;18.52;14.40;;;;;;;;;;6223042;28;20134;-67
2022/03/26 09:30:00;;;;;;;19.52;13.60;;;;;;;;;;6225154;28;20128;-66
2022/03/26 09:33:01;;;;;;;19.27;12.82;;;;;;;;;;6223121;28;20050;-65
2022/03/26 09:36:03;;;;;;;21.23;14.32;;;;;;;;;;6223695;28;20049;-66
2022/03/26 09:39:05;;;;;;;21.77;14.63;;;;;;;;;;6222219;28;20172;-66
2022/03/26 09:42:08;;;;;;;20.00;13.13;;;;;;;;;;6222957;28;20199;-66
2022/03/26 09:45:10;;;;;;;18.65;14.43;;;;;;;;;;6221776;28;20461;-65
2022/03/26 09:48:12;;;;;;;17.23;14.30;;;;;;;;;;6220785;28;20131;-67
2022/03/26 09:51:15;;;;;;;17.48;15.55;;;;;;;;;;6221169;28;20065;-66
2022/03/26 09:54:16;;;;;;;20.60;16.50;;;;;;;;;;6221875;28;20085;-66
2022/03/26 09:57:19;;;;;;;23.38;17.08;;;;;;;;;;6219103;28;20397;-66
2022/03/26 10:00:21;;;;;;;21.10;16.45;;;;;;;;;;6219766;28;20140;-66
2022/03/26 10:03:22;;;;;;;20.13;16.45;;;;;;;;;;6220339;28;20050;-66
2022/03/26 10:06:25;;;;;;;23.77;17.27;;;;;;;;;;6220514;28;20046;-66
2022/03/26 10:09:33;;;;;;;19.33;16.27;;;;;;;;;;6219975;28;20060;-66
2022/03/26 10:12:36;;;;;;;24.08;16.88;;;;;;;;;;6219327;28;20176;-67
2022/03/26 10:15:38;;;;;;;21.40;17.05;;;;;;;;;;6220637;28;20541;-66
2022/03/26 10:18:41;;;;;;;19.05;16.58;;;;;;;;;;6219982;28;20068;-66
2022/03/26 10:21:48;;;;;;;21.38;16.58;;;;;;;;;;6218599;28;20379;-67
2022/03/26 10:24:50;;;;;;;22.27;17.08;;;;;;;;;;6218277;28;20414;-67
2022/03/26 10:27:55;;;;;;;18.88;16.45;;;;;;;;;;6222183;28;20089;-65
2022/03/26 10:34:31;;;;;;;20.85;16.83;;;;;;;;;;6220472;28;20041;-67
2022/03/26 10:37:42;;;;;;;22.88;16.33;;;;;;;;;;6221373;28;20091;-68
2022/03/26 10:40:44;;;;;;;20.42;17.45;;;;;;;;;;6219864;28;20172;-67
2022/03/26 10:43:47;;;;;;;20.87;17.10;;;;;;;;;;6221333;28;20046;-67
2022/03/26 10:46:51;;;;;;;19.63;17.52;;;;;;;;;;6221261;28;20053;-68
2022/03/26 10:49:57;;;;;;;24.10;19.08;;;;;;;;;;6220352;28;20057;-67
2022/03/26 10:52:58;;;;;;;23.95;19.17;;;;;;;;;;6217195;28;20046;-67
2022/03/26 10:56:01;;;;;;;20.83;18.67;;;;;;;;;;6218320;28;20573;-67
2022/03/26 10:59:04;;;;;;;23.13;19.85;;;;;;;;;;6216957;28;20108;-67
2022/03/26 11:02:06;;;;;;;22.30;19.63;;;;;;;;;;6218413;28;20129;-67
2022/03/26 11:05:08;;;;;;;27.88;20.27;;;;;;;;;;6221771;28;20502;-67
2022/03/26 11:08:13;;;;;;;22.58;20.00;;;;;;;;;;6222476;28;20200;-68
2022/03/26 11:11:14;;;;;;;23.20;20.35;;;;;;;;;;6222362;28;20507;-68
2022/03/26 11:14:21;;;;;;;25.67;20.20;;;;;;;;;;6219925;28;20057;-68
2022/03/26 11:17:30;;;;;;;22.33;19.55;;;;;;;;;;6223762;28;20128;-68
2022/03/26 11:21:21;;;;;;;21.98;18.83;;;;;;;;;;6223577;28;20777;-68
2022/03/26 11:24:40;;;;;;;21.02;18.80;;;;;;;;;;6223305;28;20157;-68
2022/03/26 11:27:57;;;;;;;23.45;18.92;;;;;;;;;;6222543;28;20046;-68
2022/03/26 11:31:02;;;;;;;23.42;19.45;;;;;;;;;;6222609;28;20042;-68
2022/03/26 11:34:05;;;;;;;22.45;19.10;;;;;;;;;;6220410;28;20418;-68
2022/03/26 11:37:11;;;;;;;23.55;18.73;;;;;;;;;;6223981;28;20505;-68
2022/03/26 11:40:16;;;;;;;22.92;19.08;;;;;;;;;;6222618;28;20588;-68
2022/03/26 11:43:19;;;;;;;20.05;17.88;;;;;;;;;;6223325;28;20051;-68
2022/03/26 11:53:37;;;;;;;20.05;17.92;;;;;;;;;;6224297;28;20465;-68
2022/03/26 11:56:39;;;;;;;22.55;17.50;;;;;;;;;;6222796;28;20094;-68
2022/03/26 11:59:41;;;;;;;21.63;17.25;;;;;;;;;;6221294;28;20184;-70
2022/03/26 12:02:49;;;;;;;24.35;18.67;;;;;;;;;;6220859;28;20046;-69
2022/03/26 12:09:29;;;;;;;20.10;18.08;;;;;;;;;;6222662;28;20065;-74
2022/03/26 12:12:52;;;;;;;19.27;17.20;;;;;;;;;;6222519;28;20056;-70
2022/03/26 12:16:00;;;;;;;19.35;17.35;;;;;;;;;;6220107;28;20064;-76
2022/03/26 12:19:03;;;;;;;20.80;16.70;;;;;;;;;;6219571;28;20387;-77
2022/03/26 12:22:21;;;;;;;21.05;17.55;;;;;;;;;;6222873;28;20129;-71
2022/03/26 12:25:45;;;;;;;18.85;15.65;;;;;;;;;;6221872;28;20091;-70
2022/03/26 12:28:50;;;;;;;17.15;15.18;;;;;;;;;;6219858;28;20096;-71
2022/03/26 12:31:51;;;;;;;16.40;14.05;;;;;;;;;;6221640;28;20053;-69
2022/03/26 12:34:56;;;;;;;16.98;14.98;;;;;;;;;;6221125;28;20041;-67
2022/03/26 12:37:57;;;;;;;17.42;13.95;;;;;;;;;;6222897;28;20142;-69
2022/03/26 12:41:01;;;;;;;16.15;14.50;;;;;;;;;;6220353;28;20454;-67
2022/03/26 12:44:03;;;;;;;16.73;14.90;;;;;;;;;;6221317;28;20049;-69
2022/03/26 12:47:05;;;;;;;;;;;;;;;;;;6221244;28;20120;-70
2022/03/26 12:50:09;;;;;;;19.80;17.17;;;;;;;;;;6222283;28;20013;-69
2022/03/26 12:53:11;;;;;;;19.10;17.10;;;;;;;;;;6222549;28;20491;-69
2022/03/26 12:56:14;;;;;;;19.50;17.45;;;;;;;;;;6220909;28;20046;-72
2022/03/26 12:59:15;;;;;;;19.30;16.33;;;;;;;;;;6221398;28;20046;-69
2022/03/26 13:02:18;;;;;;;20.73;17.45;;;;;;;;;;6222397;28;20129;-72
2022/03/26 13:05:22;;;;;;;18.95;16.95;;;;;;;;;;6220740;28;20053;-73
2022/03/26 13:08:23;;;;;;;20.67;16.55;;;;;;;;;;6221205;28;20123;-70
2022/03/26 13:11:27;;;;;;;19.65;16.15;;;;;;;;;;6220650;28;20042;-70
2022/03/26 13:14:28;;;;;;;20.95;16.73;;;;;;;;;;6220458;28;20077;-84
2022/03/26 13:17:30;;;;;;;19.50;17.05;;;;;;;;;;6221849;28;20136;-73
2022/03/26 13:20:35;;;;;;;22.00;18.08;;;;;;;;;;6220674;28;20428;-74
2022/03/26 13:23:36;;;;;;;19.70;17.50;;;;;;;;;;6221992;28;20134;-73
2022/03/26 13:26:43;;;;;;;19.48;17.48;;;;;;;;;;6219472;28;20074;-75
2022/03/26 13:29:45;;;;;;;22.60;18.25;;;;;;;;;;6216572;28;20045;-75
2022/03/26 13:32:49;;;;;;;19.10;16.88;;;;;;;;;;6218632;28;20123;-75
2022/03/26 13:35:54;;;;;;;20.20;16.63;;;;;;;;;;6220642;28;20053;-75
2022/03/26 13:38:56;;;;;;;22.58;16.75;;;;;;;;;;6220128;28;20512;-75
2022/03/26 13:42:00;;;;;;;19.60;17.55;;;;;;;;;;6220555;28;20454;-74
2022/03/26 13:45:02;;;;;;;20.02;17.50;;;;;;;;;;6220606;28;20378;-74
2022/03/26 13:48:04;;;;;;;21.52;18.08;;;;;;;;;;6221460;28;20488;-75
2022/03/26 13:51:11;;;;;;;21.02;17.42;;;;;;;;;;6221865;28;20071;-74
2022/03/26 13:54:13;;;;;;;20.48;17.52;;;;;;;;;;6220311;28;20438;-74
2022/03/26 13:57:14;;;;;;;23.05;19.23;;;;;;;;;;6219888;28;20184;-75
2022/03/26 14:00:17;;;;;;;21.10;18.27;;;;;;;;;;6219181;28;20067;-76
2022/03/26 14:03:18;;;;;;;22.55;17.63;;;;;;;;;;6218530;28;20132;-76
2022/03/26 14:06:22;;;;;;;25.13;19.47;;;;;;;;;;6221778;28;20185;-66
2022/03/26 14:09:24;;;;;;;23.75;18.25;;;;;;;;;;6222990;28;20517;-72
2022/03/26 14:12:26;;;;;;;19.98;17.85;;;;;;;;;;6219890;28;20073;-73
2022/03/26 14:15:28;;;;;;;27.37;19.07;;;;;;;;;;6222538;28;20136;-71
2022/03/26 14:18:30;;;;;;;;;;;;;;;;;;6220163;28;20057;-73
2022/03/26 14:21:32;;;;;;;22.15;17.90;;;;;;;;;;6221554;28;19980;-75
2022/03/26 14:24:34;;;;;;;24.73;19.10;;;;;;;;;;6217192;28;20484;-74
2022/03/26 14:27:36;;;;;;;21.10;18.47;;;;;;;;;;6219976;28;20129;-73
2022/03/26 14:30:38;;;;;;;24.40;19.60;;;;;;;;;;6219670;28;20225;-72
2022/03/26 14:33:39;;;;;;;30.02;20.17;;;;;;;;;;6220715;28;20181;-68
2022/03/26 14:36:42;;;;;;;25.27;18.47;;;;;;;;;;6221000;28;20521;-72
2022/03/26 14:39:44;;;;;;;140.13;27.52;;;;;;;;;;6223814;28;20076;-72
2022/03/26 14:42:46;;;;;;;25.30;19.63;;;;;;;;;;6224811;28;20168;-70
2022/03/26 14:45:48;;;;;;;25.17;20.30;;;;;;;;;;6223250;28;20488;-69
2022/03/26 14:48:49;;;;;;;27.90;20.85;;;;;;;;;;6224610;28;20058;-71
2022/03/26 14:51:52;;;;;;;25.38;20.05;;;;;;;;;;6223557;28;20053;-72
2022/03/26 14:54:54;;;;;;;25.38;20.65;;;;;;;;;;6223802;28;20050;-71
2022/03/26 14:57:55;;;;;;;25.25;20.02;;;;;;;;;;6224102;28;20046;-73
2022/03/26 15:00:57;;;;;;;45.45;32.75;;;;;;;;;;6223951;28;20046;-70
2022/03/26 15:03:59;;;;;;;27.48;20.13;;;;;;;;;;6221987;28;20607;-68
2022/03/26 15:07:03;;;;;;;27.27;20.92;;;;;;;;;;6222577;28;20049;-68
2022/03/26 15:10:06;;;;;;;32.38;21.25;;;;;;;;;;6222851;28;20129;-72
2022/03/26 15:13:08;;;;;;;29.27;20.70;;;;;;;;;;6221500;28;20054;-73
2022/03/26 15:16:09;;;;;;;26.23;19.52;;;;;;;;;;6223382;28;20123;-71
2022/03/26 15:19:11;;;;;;;40.40;21.80;;;;;;;;;;6222677;28;20553;-71
2022/03/26 15:22:14;;;;;;;27.00;19.23;;;;;;;;;;6223173;28;20076;-71
2022/03/26 15:25:16;;;;;;;26.50;19.27;;;;;;;;;;6221406;28;20636;-72
2022/03/26 15:28:17;;;;;;;28.10;19.87;;;;;;;;;;6223505;28;20050;-71
2022/03/26 15:31:19;;;;;;;29.70;20.83;;;;;;;;;;6223021;28;20322;-71
2022/03/26 15:34:21;;;;;;;25.45;20.40;;;;;;;;;;6223017;28;20133;-71
2022/03/26 15:37:24;;;;;;;24.30;18.52;;;;;;;;;;6224739;28;20101;-72
2022/03/26 15:40:26;;;;;;;28.55;20.30;;;;;;;;;;6223019;28;20129;-69
2022/03/26 15:43:28;;;;;;;26.73;20.50;;;;;;;;;;6224078;28;20050;-69
2022/03/26 15:46:29;;;;;;;26.33;21.42;;;;;;;;;;6223945;28;20072;-69
2022/03/26 15:49:32;;;;;;;25.35;20.60;;;;;;;;;;6223882;28;20416;-70
2022/03/26 15:52:35;;;;;;;29.55;21.83;;;;;;;;;;6221322;28;20128;-68
2022/03/26 15:55:37;;;;;;;30.40;20.58;;;;;;;;;;6222449;28;20100;-70
2022/03/26 15:58:38;;;;;;;29.27;21.00;;;;;;;;;;6221909;28;20089;-69
2022/03/26 16:01:40;;;;;;;29.00;21.65;;;;;;;;;;6220599;28;20148;-71
2022/03/26 16:04:41;;;;;;;31.42;22.13;;;;;;;;;;6221991;28;20442;-72
2022/03/26 16:07:44;;;;;;;31.95;21.00;;;;;;;;;;6222007;28;20191;-70
2022/03/26 16:10:46;;;;;;;28.38;20.58;;;;;;;;;;6221257;28;20045;-71
2022/03/26 16:13:48;;;;;;;28.83;21.53;;;;;;;;;;6221460;28;20050;-72
2022/03/26 16:16:49;;;;;;;31.77;22.57;;;;;;;;;;6223187;28;20716;-78
2022/03/26 16:19:51;;;;;;;31.60;22.35;;;;;;;;;;6224687;28;20103;-81
2022/03/26 16:22:54;;;;;;;30.40;22.97;;;;;;;;;;6221499;28;20200;-80
2022/03/26 16:25:56;;;;;;;28.38;21.65;;;;;;;;;;6222440;28;20195;-81
2022/03/26 16:28:58;;;;;;;32.58;22.02;;;;;;;;;;6220756;28;20046;-80
2022/03/26 16:32:00;;;;;;;26.63;21.33;;;;;;;;;;6223937;28;20176;-78
2022/03/26 16:35:03;;;;;;;30.70;22.40;;;;;;;;;;6221566;28;20161;-80
2022/03/26 16:38:09;;;;;;;28.48;21.20;;;;;;;;;;6223357;28;20060;-81
2022/03/26 16:41:11;;;;;;;28.17;21.73;;;;;;;;;;6222479;28;20053;-80
2022/03/26 16:44:13;;;;;;;32.92;22.35;;;;;;;;;;6221313;28;20049;-80
2022/03/26 16:47:15;;;;;;;32.30;21.07;;;;;;;;;;6221775;28;20073;-78
2022/03/26 16:50:17;;;;;;;33.47;21.73;;;;;;;;;;6220937;28;20108;-80
2022/03/26 16:53:20;;;;;;;29.27;21.30;;;;;;;;;;6225095;28;20502;-75
2022/03/26 16:56:21;;;;;;;31.40;22.52;;;;;;;;;;6221531;28;20046;-78
2022/03/26 16:59:23;;;;;;;35.63;21.97;;;;;;;;;;6220031;28;20185;-77
2022/03/26 17:02:24;;;;;;;33.60;21.85;;;;;;;;;;6219929;28;20441;-75
2022/03/26 17:05:27;;;;;;;30.17;20.75;;;;;;;;;;6221422;28;21039;-76
2022/03/26 17:08:30;;;;;;;30.85;20.90;;;;;;;;;;6223595;28;20176;-76
2022/03/26 17:11:32;;;;;;;27.70;20.30;;;;;;;;;;6221380;28;20053;-79
2022/03/26 17:14:34;;;;;;;32.53;20.42;;;;;;;;;;6221109;28;20478;-75
2022/03/26 17:17:35;;;;;;;28.13;19.92;;;;;;;;;;6220504;28;20173;-77
2022/03/26 17:20:37;;;;;;;30.15;20.33;;;;;;;;;;6220435;28;20538;-77
2022/03/26 17:23:40;;;;;;;32.85;20.48;;;;;;;;;;6221557;28;20135;-77
2022/03/26 17:26:41;;;;;;;31.50;19.45;;;;;;;;;;6215946;28;20166;-77
2022/03/26 17:29:43;;;;;;;34.53;20.80;;;;;;;;;;6219111;28;20628;-75
2022/03/26 17:32:48;;;;;;;32.85;20.88;;;;;;;;;;6218643;28;20050;-75
2022/03/26 17:35:49;;;;;;;31.55;19.45;;;;;;;;;;6219777;28;20149;-77
2022/03/26 17:38:52;;;;;;;28.88;19.48;;;;;;;;;;6219167;28;20042;-74
2022/03/26 17:41:54;;;;;;;33.75;20.67;;;;;;;;;;6221188;28;20050;-75
2022/03/26 17:44:55;;;;;;;32.38;20.48;;;;;;;;;;6220140;28;20064;-75
2022/03/26 17:47:57;;;;;;;35.22;20.70;;;;;;;;;;6221851;28;20112;-75
2022/03/26 17:50:58;;;;;;;32.95;20.83;;;;;;;;;;6220221;28;20140;-75
2022/03/26 17:54:01;;;;;;;36.92;20.95;;;;;;;;;;6220416;28;20513;-75
2022/03/26 17:57:03;;;;;;;43.13;21.48;;;;;;;;;;6218375;28;20116;-77
2022/03/26 18:00:06;;;;;;;45.38;21.83;;;;;;;;;;6218154;28;20078;-77
2022/03/26 18:03:08;;;;;;;42.58;21.02;;;;;;;;;;6216501;28;20136;-78
2022/03/26 18:06:10;;;;;;;50.17;21.98;;;;;;;;;;6218806;28;20136;-76